sensor_id;sensor_type;location;lat;lon;timestamp;temperature;humidity
13433;DHT22;6789;47.678;9.158;2022-08-18T00:15:07;18.50;99.90
13433;DHT22;6789;47.678;9.158;2022-08-18T00:20:10;18.50;99.90
13433;DHT22;6789;47.678;9.158;2022-08-18T00:25:48;18.60;99.90
13433;DHT22;6789;47.678;9.158;2022-08-18T00:31:50;18.60;99.90
13433;DHT22;6789;47.678;9.158;2022-08-18T00:37:47;18.50;99.90
13433;DHT22;6789;47.678;9.158;2022-08-18T00:42:44;18.50;99.90
13433;DHT22;6789;47.678;9.158;2022-08-18T00:47:40;18.50;99.90
13433;DHT22;6789;47.678;9.158;2022-08-18T00:52:33;18.50;99.90
13433;DHT22;6789;47.678;9.158;2022-08-18T00:57:47;18.50;99.90
13433;DHT22;6789;47.678;9.158;2022-08-18T01:03:14;18.50;99.90
13433;DHT22;6789;47.678;9.158;2022-08-18T01:09:09;18.40;99.90
13433;DHT22;6789;47.678;9.158;2022-08-18T01:14:43;18.40;99.90
13433;DHT22;6789;47.678;9.158;2022-08-18T01:20:27;18.40;99.90
13433;DHT22;6789;47.678;9.158;2022-08-18T01:26:28;18.40;99.90
13433;DHT22;6789;47.678;9.158;2022-08-18T01:31:44;18.40;99.90
13433;DHT22;6789;47.678;9.158;2022-08-18T01:36:47;18.40;99.90
13433;DHT22;6789;47.678;9.158;2022-08-18T01:42:05;18.40;99.90
13433;DHT22;6789;47.678;9.158;2022-08-18T01:47:49;18.40;99.90
13433;DHT22;6789;47.678;9.158;2022-08-18T01:52:41;18.40;99.90
13433;DHT22;6789;47.678;9.158;2022-08-18T01:57:35;18.30;99.90
13433;DHT22;6789;47.678;9.158;2022-08-18T02:02:33;18.40;99.90
13433;DHT22;6789;47.678;9.158;2022-08-18T02:07:25;18.50;99.90
13433;DHT22;6789;47.678;9.158;2022-08-18T02:12:27;18.40;99.90
13433;DHT22;6789;47.678;9.158;2022-08-18T02:17:37;18.20;99.90
13433;DHT22;6789;47.678;9.158;2022-08-18T02:22:55;18.30;99.90
13433;DHT22;6789;47.678;9.158;2022-08-18T02:28:04;18.30;99.90
13433;DHT22;6789;47.678;9.158;2022-08-18T02:32:57;18.40;99.90
13433;DHT22;6789;47.678;9.158;2022-08-18T02:37:49;18.40;99.90
13433;DHT22;6789;47.678;9.158;2022-08-18T02:42:47;18.20;99.90
13433;DHT22;6789;47.678;9.158;2022-08-18T02:47:55;18.20;99.90
13433;DHT22;6789;47.678;9.158;2022-08-18T02:52:48;18.00;99.90
13433;DHT22;6789;47.678;9.158;2022-08-18T02:57:45;18.00;99.90
13433;DHT22;6789;47.678;9.158;2022-08-18T03:02:39;18.10;99.90
13433;DHT22;6789;47.678;9.158;2022-08-18T03:07:40;18.10;99.90
13433;DHT22;6789;47.678;9.158;2022-08-18T03:12:42;18.10;99.90
13433;DHT22;6789;47.678;9.158;2022-08-18T03:17:50;18.00;99.90
13433;DHT22;6789;47.678;9.158;2022-08-18T03:22:49;18.10;99.90
13433;DHT22;6789;47.678;9.158;2022-08-18T03:27:43;18.00;99.90
13433;DHT22;6789;47.678;9.158;2022-08-18T03:33:05;17.90;99.90
13433;DHT22;6789;47.678;9.158;2022-08-18T03:38:17;17.90;99.90
13433;DHT22;6789;47.678;9.158;2022-08-18T03:43:09;17.90;99.90
13433;DHT22;6789;47.678;9.158;2022-08-18T03:48:20;18.00;99.90
13433;DHT22;6789;47.678;9.158;2022-08-18T03:53:36;17.80;99.90
13433;DHT22;6789;47.678;9.158;2022-08-18T03:58:56;17.70;99.90
13433;DHT22;6789;47.678;9.158;2022-08-18T04:04:17;17.50;99.90
13433;DHT22;6789;47.678;9.158;2022-08-18T04:09:28;17.50;99.90
13433;DHT22;6789;47.678;9.158;2022-08-18T04:14:35;17.40;99.90
13433;DHT22;6789;47.678;9.158;2022-08-18T04:20:21;17.40;99.90
13433;DHT22;6789;47.678;9.158;2022-08-18T04:32:03;17.60;99.90
13433;DHT22;6789;47.678;9.158;2022-08-18T04:37:51;17.80;99.90
13433;DHT22;6789;47.678;9.158;2022-08-18T04:43:00;17.90;99.90
13433;DHT22;6789;47.678;9.158;2022-08-18T04:48:57;18.00;99.90
13433;DHT22;6789;47.678;9.158;2022-08-18T04:54:35;18.10;99.90
13433;DHT22;6789;47.678;9.158;2022-08-18T05:00:17;18.00;99.90
13433;DHT22;6789;47.678;9.158;2022-08-18T05:06:04;17.90;99.90
13433;DHT22;6789;47.678;9.158;2022-08-18T05:11:29;17.90;99.90
13433;DHT22;6789;47.678;9.158;2022-08-18T05:17:36;17.50;99.90
13433;DHT22;6789;47.678;9.158;2022-08-18T05:23:30;17.20;99.90
13433;DHT22;6789;47.678;9.158;2022-08-18T05:29:50;17.10;99.90
13433;DHT22;6789;47.678;9.158;2022-08-18T05:35:43;17.20;99.90
13433;DHT22;6789;47.678;9.158;2022-08-18T05:53:05;17.90;99.90
13433;DHT22;6789;47.678;9.158;2022-08-18T05:59:06;18.10;99.90
13433;DHT22;6789;47.678;9.158;2022-08-18T06:04:52;18.20;99.90
13433;DHT22;6789;47.678;9.158;2022-08-18T06:10:49;18.30;99.90
13433;DHT22;6789;47.678;9.158;2022-08-18T06:41:04;21.70;99.90
13433;DHT22;6789;47.678;9.158;2022-08-18T06:46:55;22.40;99.90
13433;DHT22;6789;47.678;9.158;2022-08-18T07:05:04;22.70;99.90
13433;DHT22;6789;47.678;9.158;2022-08-18T07:10:44;22.90;99.90
13433;DHT22;6789;47.678;9.158;2022-08-18T07:32:04;24.00;99.90
13433;DHT22;6789;47.678;9.158;2022-08-18T07:38:50;24.00;99.90
13433;DHT22;6789;47.678;9.158;2022-08-18T07:50:17;23.70;99.90
13433;DHT22;6789;47.678;9.158;2022-08-18T08:20:47;23.40;99.90
13433;DHT22;6789;47.678;9.158;2022-08-18T08:31:47;23.90;99.90
13433;DHT22;6789;47.678;9.158;2022-08-18T08:37:19;24.30;99.90
13433;DHT22;6789;47.678;9.158;2022-08-18T08:43:41;24.90;99.90
13433;DHT22;6789;47.678;9.158;2022-08-18T08:49:31;24.60;99.90
13433;DHT22;6789;47.678;9.158;2022-08-18T08:55:29;24.80;99.90
13433;DHT22;6789;47.678;9.158;2022-08-18T09:07:13;25.20;99.90
13433;DHT22;6789;47.678;9.158;2022-08-18T10:15:23;26.50;99.90
13433;DHT22;6789;47.678;9.158;2022-08-18T10:21:59;26.20;99.90
13433;DHT22;6789;47.678;9.158;2022-08-18T10:27:53;26.30;99.90
13433;DHT22;6789;47.678;9.158;2022-08-18T10:34:37;26.10;99.90
13433;DHT22;6789;47.678;9.158;2022-08-18T10:40:32;26.50;99.90
13433;DHT22;6789;47.678;9.158;2022-08-18T10:45:54;26.50;99.90
13433;DHT22;6789;47.678;9.158;2022-08-18T10:57:31;25.40;99.90
13433;DHT22;6789;47.678;9.158;2022-08-18T11:03:04;24.80;99.90
13433;DHT22;6789;47.678;9.158;2022-08-18T11:08:19;24.90;99.90
13433;DHT22;6789;47.678;9.158;2022-08-18T11:14:23;25.40;99.90
13433;DHT22;6789;47.678;9.158;2022-08-18T11:20:21;25.60;99.90
13433;DHT22;6789;47.678;9.158;2022-08-18T11:25:35;26.00;99.90
13433;DHT22;6789;47.678;9.158;2022-08-18T11:31:11;26.50;99.90
13433;DHT22;6789;47.678;9.158;2022-08-18T11:48:53;27.20;99.90
13433;DHT22;6789;47.678;9.158;2022-08-18T11:59:56;26.90;99.90
13433;DHT22;6789;47.678;9.158;2022-08-18T12:10:26;27.60;99.90
13433;DHT22;6789;47.678;9.158;2022-08-18T12:16:29;27.70;99.90
13433;DHT22;6789;47.678;9.158;2022-08-18T13:01:12;27.70;99.90
13433;DHT22;6789;47.678;9.158;2022-08-18T13:06:18;28.00;99.90
13433;DHT22;6789;47.678;9.158;2022-08-18T13:11:44;28.50;99.90
13433;DHT22;6789;47.678;9.158;2022-08-18T13:17:44;28.10;99.90
13433;DHT22;6789;47.678;9.158;2022-08-18T13:22:51;28.10;99.90
13433;DHT22;6789;47.678;9.158;2022-08-18T13:27:59;27.90;99.90
13433;DHT22;6789;47.678;9.158;2022-08-18T13:33:12;27.40;99.90
13433;DHT22;6789;47.678;9.158;2022-08-18T13:49:56;27.10;99.90
13433;DHT22;6789;47.678;9.158;2022-08-18T14:05:19;26.40;99.90
13433;DHT22;6789;47.678;9.158;2022-08-18T14:10:35;26.30;99.90
13433;DHT22;6789;47.678;9.158;2022-08-18T14:20:51;25.90;99.90
13433;DHT22;6789;47.678;9.158;2022-08-18T14:31:39;25.60;99.90
13433;DHT22;6789;47.678;9.158;2022-08-18T14:36:47;25.60;99.90
13433;DHT22;6789;47.678;9.158;2022-08-18T14:42:34;25.40;99.90
13433;DHT22;6789;47.678;9.158;2022-08-18T14:47:45;25.10;99.90
13433;DHT22;6789;47.678;9.158;2022-08-18T14:58:09;24.80;99.90
13433;DHT22;6789;47.678;9.158;2022-08-18T15:04:06;24.50;99.90
13433;DHT22;6789;47.678;9.158;2022-08-18T15:09:16;24.40;99.90
13433;DHT22;6789;47.678;9.158;2022-08-18T15:14:32;24.30;99.90
13433;DHT22;6789;47.678;9.158;2022-08-18T15:19:47;24.10;99.90
13433;DHT22;6789;47.678;9.158;2022-08-18T15:25:11;24.00;99.90
13433;DHT22;6789;47.678;9.158;2022-08-18T15:36:02;23.90;99.90
13433;DHT22;6789;47.678;9.158;2022-08-18T15:41:29;23.80;99.90
13433;DHT22;6789;47.678;9.158;2022-08-18T15:46:39;23.80;99.90
13433;DHT22;6789;47.678;9.158;2022-08-18T15:51:49;23.70;99.90
13433;DHT22;6789;47.678;9.158;2022-08-18T15:56:56;23.70;99.90
13433;DHT22;6789;47.678;9.158;2022-08-18T16:02:08;23.50;99.90
13433;DHT22;6789;47.678;9.158;2022-08-18T16:07:18;23.40;99.90
13433;DHT22;6789;47.678;9.158;2022-08-18T16:12:36;23.20;99.90
13433;DHT22;6789;47.678;9.158;2022-08-18T16:17:43;23.00;99.90
13433;DHT22;6789;47.678;9.158;2022-08-18T16:23:04;22.50;99.90
13433;DHT22;6789;47.678;9.158;2022-08-18T16:28:20;22.20;99.90
13433;DHT22;6789;47.678;9.158;2022-08-18T16:34:14;22.20;99.90
13433;DHT22;6789;47.678;9.158;2022-08-18T16:39:34;21.90;99.90
13433;DHT22;6789;47.678;9.158;2022-08-18T16:44:42;21.50;99.90
13433;DHT22;6789;47.678;9.158;2022-08-18T16:50:15;21.10;99.90
13433;DHT22;6789;47.678;9.158;2022-08-18T16:55:25;20.70;99.90
13433;DHT22;6789;47.678;9.158;2022-08-18T17:00:42;20.60;99.90
13433;DHT22;6789;47.678;9.158;2022-08-18T17:06:11;20.50;99.90
13433;DHT22;6789;47.678;9.158;2022-08-18T17:11:23;20.30;99.90
13433;DHT22;6789;47.678;9.158;2022-08-18T17:16:32;20.20;99.90
13433;DHT22;6789;47.678;9.158;2022-08-18T17:21:39;20.10;99.90
13433;DHT22;6789;47.678;9.158;2022-08-18T17:26:52;20.10;99.90
13433;DHT22;6789;47.678;9.158;2022-08-18T17:38:18;19.90;99.90
13433;DHT22;6789;47.678;9.158;2022-08-18T17:43:38;19.80;99.90
13433;DHT22;6789;47.678;9.158;2022-08-18T17:49:05;19.80;99.90
13433;DHT22;6789;47.678;9.158;2022-08-18T17:54:34;19.70;99.90
13433;DHT22;6789;47.678;9.158;2022-08-18T17:59:51;19.80;99.90
13433;DHT22;6789;47.678;9.158;2022-08-18T18:05:16;19.80;99.90
13433;DHT22;6789;47.678;9.158;2022-08-18T18:15:36;19.80;99.90
13433;DHT22;6789;47.678;9.158;2022-08-18T18:20:45;19.60;99.90
13433;DHT22;6789;47.678;9.158;2022-08-18T18:31:40;19.40;99.90
13433;DHT22;6789;47.678;9.158;2022-08-18T18:36:50;19.50;99.90
13433;DHT22;6789;47.678;9.158;2022-08-18T18:42:17;19.40;99.90
13433;DHT22;6789;47.678;9.158;2022-08-18T18:47:52;19.30;99.90
13433;DHT22;6789;47.678;9.158;2022-08-18T18:54:03;19.30;99.90
13433;DHT22;6789;47.678;9.158;2022-08-18T19:11:52;19.40;99.90
13433;DHT22;6789;47.678;9.158;2022-08-18T19:18:13;19.30;99.90
13433;DHT22;6789;47.678;9.158;2022-08-18T19:24:17;19.20;99.90
13433;DHT22;6789;47.678;9.158;2022-08-18T19:29:58;19.10;99.90
13433;DHT22;6789;47.678;9.158;2022-08-18T19:36:09;19.10;99.90
13433;DHT22;6789;47.678;9.158;2022-08-18T19:42:00;19.00;99.90
13433;DHT22;6789;47.678;9.158;2022-08-18T19:48:17;19.00;99.90
13433;DHT22;6789;47.678;9.158;2022-08-18T19:53:37;19.10;99.90
13433;DHT22;6789;47.678;9.158;2022-08-18T20:05:00;19.10;99.90
13433;DHT22;6789;47.678;9.158;2022-08-18T20:17:16;19.10;99.90
13433;DHT22;6789;47.678;9.158;2022-08-18T20:22:52;19.10;99.90
13433;DHT22;6789;47.678;9.158;2022-08-18T20:28:38;19.10;99.90
13433;DHT22;6789;47.678;9.158;2022-08-18T21:00:18;19.00;99.90
13433;DHT22;6789;47.678;9.158;2022-08-18T21:05:59;19.00;99.90
13433;DHT22;6789;47.678;9.158;2022-08-18T21:11:42;18.90;99.90
13433;DHT22;6789;47.678;9.158;2022-08-18T21:17:33;18.80;99.90
13433;DHT22;6789;47.678;9.158;2022-08-18T21:23:10;18.70;99.90
13433;DHT22;6789;47.678;9.158;2022-08-18T21:28:43;18.80;99.90
13433;DHT22;6789;47.678;9.158;2022-08-18T21:34:32;18.90;99.90
13433;DHT22;6789;47.678;9.158;2022-08-18T21:40:12;18.90;99.90
13433;DHT22;6789;47.678;9.158;2022-08-18T21:46:00;18.80;99.90
13433;DHT22;6789;47.678;9.158;2022-08-18T21:51:25;18.70;99.90
13433;DHT22;6789;47.678;9.158;2022-08-18T21:56:37;18.60;99.90
13433;DHT22;6789;47.678;9.158;2022-08-18T22:01:56;18.60;99.90
13433;DHT22;6789;47.678;9.158;2022-08-18T22:07:22;18.60;99.90
13433;DHT22;6789;47.678;9.158;2022-08-18T22:12:29;18.60;99.90
13433;DHT22;6789;47.678;9.158;2022-08-18T22:18:28;18.70;99.90
13433;DHT22;6789;47.678;9.158;2022-08-18T22:23:45;18.70;99.90
13433;DHT22;6789;47.678;9.158;2022-08-18T22:29:30;18.70;99.90
13433;DHT22;6789;47.678;9.158;2022-08-18T22:34:57;18.70;99.90
13433;DHT22;6789;47.678;9.158;2022-08-18T22:40:07;18.70;99.90
13433;DHT22;6789;47.678;9.158;2022-08-18T22:45:43;18.80;99.90
13433;DHT22;6789;47.678;9.158;2022-08-18T22:57:03;18.80;99.90
13433;DHT22;6789;47.678;9.158;2022-08-18T23:02:33;18.70;99.90
13433;DHT22;6789;47.678;9.158;2022-08-18T23:07:41;18.60;99.90
13433;DHT22;6789;47.678;9.158;2022-08-18T23:12:33;18.50;99.90
13433;DHT22;6789;47.678;9.158;2022-08-18T23:18:29;18.50;99.90
13433;DHT22;6789;47.678;9.158;2022-08-18T23:24:01;18.40;99.90
13433;DHT22;6789;47.678;9.158;2022-08-18T23:29:21;18.40;99.90
13433;DHT22;6789;47.678;9.158;2022-08-18T23:34:15;18.40;99.90
13433;DHT22;6789;47.678;9.158;2022-08-18T23:39:29;18.50;99.90
13433;DHT22;6789;47.678;9.158;2022-08-18T23:44:24;18.50;99.90
13433;DHT22;6789;47.678;9.158;2022-08-18T23:49:31;18.40;99.90
13433;DHT22;6789;47.678;9.158;2022-08-18T23:54:37;18.50;99.90
13433;DHT22;6789;47.678;9.158;2022-08-18T23:59:33;18.60;99.90
